Terminal Aerodrome Forecast
Issued by NWS

Home | Current Version | Previous Version | Text Only | Print | Product List | Glossary On
Versions: 1 2 3 4 5 6 7 8 9 10 11 12 13 14
000
FTUS43 KICT 221105 AAA
TAFCNU
TAF AMD
KCNU 221105Z 2211/2306 03013KT P6SM VCSH OVC040
     FM221500 03017KT P6SM OVC050
     FM221800 03017G22KT P6SM OVC070
     FM230000 01007KT P6SM OVC070
     FM230300 35007KT P6SM SCT070=

USA.gov is the U.S. government's official web portal to all federal, state and local government web resources and services.